sensor_id;sensor_type;location;lat;lon;timestamp;P1;durP1;ratioP1;P2;durP2;ratioP2
46090;SDS011;31826;53.572;10.170;2023-06-01T00:00:00;9.95;;;3.42;;
46090;SDS011;31826;53.572;10.170;2023-06-01T00:02:26;12.50;;;4.18;;
46090;SDS011;31826;53.572;10.170;2023-06-01T00:04:52;9.25;;;3.50;;
46090;SDS011;31826;53.572;10.170;2023-06-01T00:07:17;13.80;;;3.53;;
46090;SDS011;31826;53.572;10.170;2023-06-01T00:09:43;11.05;;;2.90;;
46090;SDS011;31826;53.572;10.170;2023-06-01T00:12:09;11.03;;;3.27;;
46090;SDS011;31826;53.572;10.170;2023-06-01T00:14:35;17.77;;;4.23;;
46090;SDS011;31826;53.572;10.170;2023-06-01T00:17:00;11.80;;;3.83;;
46090;SDS011;31826;53.572;10.170;2023-06-01T00:19:27;13.02;;;4.03;;
46090;SDS011;31826;53.572;10.170;2023-06-01T00:21:54;11.85;;;3.92;;
46090;SDS011;31826;53.572;10.170;2023-06-01T00:24:20;9.45;;;3.83;;
46090;SDS011;31826;53.572;10.170;2023-06-01T00:26:47;12.57;;;3.80;;
46090;SDS011;31826;53.572;10.170;2023-06-01T00:29:13;9.82;;;3.05;;
46090;SDS011;31826;53.572;10.170;2023-06-01T00:31:38;11.80;;;3.93;;
46090;SDS011;31826;53.572;10.170;2023-06-01T00:34:04;11.23;;;3.67;;
46090;SDS011;31826;53.572;10.170;2023-06-01T00:36:30;8.17;;;3.47;;
46090;SDS011;31826;53.572;10.170;2023-06-01T00:38:56;11.40;;;3.53;;
46090;SDS011;31826;53.572;10.170;2023-06-01T00:41:27;10.73;;;3.70;;
46090;SDS011;31826;53.572;10.170;2023-06-01T00:43:53;10.60;;;3.38;;
46090;SDS011;31826;53.572;10.170;2023-06-01T00:46:19;12.18;;;3.67;;
46090;SDS011;31826;53.572;10.170;2023-06-01T00:48:45;10.77;;;3.92;;
46090;SDS011;31826;53.572;10.170;2023-06-01T00:51:11;9.52;;;3.90;;
46090;SDS011;31826;53.572;10.170;2023-06-01T00:53:37;10.30;;;3.90;;
46090;SDS011;31826;53.572;10.170;2023-06-01T00:56:03;10.60;;;4.43;;
46090;SDS011;31826;53.572;10.170;2023-06-01T00:58:29;9.30;;;4.03;;
46090;SDS011;31826;53.572;10.170;2023-06-01T01:00:55;11.98;;;4.15;;
46090;SDS011;31826;53.572;10.170;2023-06-01T01:03:21;9.80;;;4.10;;
46090;SDS011;31826;53.572;10.170;2023-06-01T01:05:50;12.52;;;4.30;;
46090;SDS011;31826;53.572;10.170;2023-06-01T01:08:30;11.75;;;4.18;;
46090;SDS011;31826;53.572;10.170;2023-06-01T01:11:04;13.07;;;4.63;;
46090;SDS011;31826;53.572;10.170;2023-06-01T01:13:37;14.07;;;4.53;;
46090;SDS011;31826;53.572;10.170;2023-06-01T01:16:26;12.48;;;4.75;;
46090;SDS011;31826;53.572;10.170;2023-06-01T01:19:00;13.77;;;4.75;;
46090;SDS011;31826;53.572;10.170;2023-06-01T01:21:48;10.93;;;4.35;;
46090;SDS011;31826;53.572;10.170;2023-06-01T01:30:04;13.15;;;5.32;;
46090;SDS011;31826;53.572;10.170;2023-06-01T01:32:32;13.32;;;4.88;;
46090;SDS011;31826;53.572;10.170;2023-06-01T01:35:00;12.52;;;5.03;;
46090;SDS011;31826;53.572;10.170;2023-06-01T01:37:27;13.98;;;5.75;;
46090;SDS011;31826;53.572;10.170;2023-06-01T01:39:53;11.43;;;5.00;;
46090;SDS011;31826;53.572;10.170;2023-06-01T01:42:19;11.63;;;4.72;;
46090;SDS011;31826;53.572;10.170;2023-06-01T01:44:45;10.98;;;4.78;;
46090;SDS011;31826;53.572;10.170;2023-06-01T01:47:15;12.43;;;5.50;;
46090;SDS011;31826;53.572;10.170;2023-06-01T01:49:46;11.82;;;4.50;;
46090;SDS011;31826;53.572;10.170;2023-06-01T01:52:21;10.90;;;4.80;;
46090;SDS011;31826;53.572;10.170;2023-06-01T01:54:51;10.20;;;4.45;;
46090;SDS011;31826;53.572;10.170;2023-06-01T01:57:18;10.98;;;4.78;;
46090;SDS011;31826;53.572;10.170;2023-06-01T01:59:48;11.93;;;4.47;;
46090;SDS011;31826;53.572;10.170;2023-06-01T02:02:14;9.95;;;4.32;;
46090;SDS011;31826;53.572;10.170;2023-06-01T02:04:40;13.38;;;5.00;;
46090;SDS011;31826;53.572;10.170;2023-06-01T02:07:06;9.23;;;4.50;;
46090;SDS011;31826;53.572;10.170;2023-06-01T02:09:33;11.60;;;4.38;;
46090;SDS011;31826;53.572;10.170;2023-06-01T02:11:59;11.38;;;4.85;;
46090;SDS011;31826;53.572;10.170;2023-06-01T02:14:25;10.73;;;4.45;;
46090;SDS011;31826;53.572;10.170;2023-06-01T02:16:51;10.77;;;4.32;;
46090;SDS011;31826;53.572;10.170;2023-06-01T02:19:18;13.95;;;4.63;;
46090;SDS011;31826;53.572;10.170;2023-06-01T02:21:44;14.35;;;5.32;;
46090;SDS011;31826;53.572;10.170;2023-06-01T02:24:10;13.50;;;4.63;;
46090;SDS011;31826;53.572;10.170;2023-06-01T02:26:36;15.48;;;6.47;;
46090;SDS011;31826;53.572;10.170;2023-06-01T02:29:02;13.63;;;4.60;;
46090;SDS011;31826;53.572;10.170;2023-06-01T02:31:30;11.13;;;4.60;;
46090;SDS011;31826;53.572;10.170;2023-06-01T02:33:58;12.65;;;4.55;;
46090;SDS011;31826;53.572;10.170;2023-06-01T02:36:25;10.68;;;4.50;;
46090;SDS011;31826;53.572;10.170;2023-06-01T02:38:54;11.15;;;4.65;;
46090;SDS011;31826;53.572;10.170;2023-06-01T02:41:20;11.93;;;5.22;;
46090;SDS011;31826;53.572;10.170;2023-06-01T02:43:50;13.48;;;5.20;;
46090;SDS011;31826;53.572;10.170;2023-06-01T02:46:19;14.70;;;5.60;;
46090;SDS011;31826;53.572;10.170;2023-06-01T02:48:45;16.40;;;6.07;;
46090;SDS011;31826;53.572;10.170;2023-06-01T02:51:11;17.23;;;6.10;;
46090;SDS011;31826;53.572;10.170;2023-06-01T02:53:40;12.25;;;5.47;;
46090;SDS011;31826;53.572;10.170;2023-06-01T02:56:06;13.38;;;5.53;;
46090;SDS011;31826;53.572;10.170;2023-06-01T02:58:32;12.97;;;5.03;;
46090;SDS011;31826;53.572;10.170;2023-06-01T03:00:58;12.50;;;5.20;;
46090;SDS011;31826;53.572;10.170;2023-06-01T03:03:24;12.90;;;5.13;;
46090;SDS011;31826;53.572;10.170;2023-06-01T03:05:50;10.88;;;4.78;;
46090;SDS011;31826;53.572;10.170;2023-06-01T03:08:16;13.27;;;5.18;;
46090;SDS011;31826;53.572;10.170;2023-06-01T03:10:42;14.83;;;4.60;;
46090;SDS011;31826;53.572;10.170;2023-06-01T03:13:09;14.68;;;5.15;;
46090;SDS011;31826;53.572;10.170;2023-06-01T03:15:35;15.65;;;4.78;;
46090;SDS011;31826;53.572;10.170;2023-06-01T03:18:02;13.98;;;4.95;;
46090;SDS011;31826;53.572;10.170;2023-06-01T03:20:28;13.52;;;4.97;;
46090;SDS011;31826;53.572;10.170;2023-06-01T03:22:54;13.25;;;4.55;;
46090;SDS011;31826;53.572;10.170;2023-06-01T03:25:20;12.00;;;4.33;;
46090;SDS011;31826;53.572;10.170;2023-06-01T03:27:46;11.10;;;4.55;;
46090;SDS011;31826;53.572;10.170;2023-06-01T03:30:12;16.60;;;5.03;;
46090;SDS011;31826;53.572;10.170;2023-06-01T03:32:42;11.60;;;4.72;;
46090;SDS011;31826;53.572;10.170;2023-06-01T03:35:09;12.43;;;4.45;;
46090;SDS011;31826;53.572;10.170;2023-06-01T03:37:39;13.32;;;5.00;;
46090;SDS011;31826;53.572;10.170;2023-06-01T03:40:06;11.33;;;4.70;;
46090;SDS011;31826;53.572;10.170;2023-06-01T03:42:37;12.40;;;4.68;;
46090;SDS011;31826;53.572;10.170;2023-06-01T03:45:04;13.45;;;5.70;;
46090;SDS011;31826;53.572;10.170;2023-06-01T03:47:30;12.52;;;5.13;;
46090;SDS011;31826;53.572;10.170;2023-06-01T03:49:56;13.48;;;4.97;;
46090;SDS011;31826;53.572;10.170;2023-06-01T03:52:26;11.73;;;4.68;;
46090;SDS011;31826;53.572;10.170;2023-06-01T03:54:53;16.23;;;4.63;;
46090;SDS011;31826;53.572;10.170;2023-06-01T03:57:20;11.73;;;4.47;;
46090;SDS011;31826;53.572;10.170;2023-06-01T03:59:46;11.38;;;4.18;;
46090;SDS011;31826;53.572;10.170;2023-06-01T04:02:11;10.75;;;4.13;;
46090;SDS011;31826;53.572;10.170;2023-06-01T04:04:37;13.95;;;4.25;;
46090;SDS011;31826;53.572;10.170;2023-06-01T04:07:05;11.23;;;4.00;;
46090;SDS011;31826;53.572;10.170;2023-06-01T04:09:32;11.88;;;4.35;;
46090;SDS011;31826;53.572;10.170;2023-06-01T04:11:58;11.87;;;4.00;;
46090;SDS011;31826;53.572;10.170;2023-06-01T04:14:23;17.30;;;3.97;;
46090;SDS011;31826;53.572;10.170;2023-06-01T04:16:49;9.33;;;3.60;;
46090;SDS011;31826;53.572;10.170;2023-06-01T04:19:15;16.00;;;4.10;;
46090;SDS011;31826;53.572;10.170;2023-06-01T04:21:41;14.40;;;4.88;;
46090;SDS011;31826;53.572;10.170;2023-06-01T04:24:08;11.77;;;3.80;;
46090;SDS011;31826;53.572;10.170;2023-06-01T04:26:34;10.95;;;4.00;;
46090;SDS011;31826;53.572;10.170;2023-06-01T04:29:01;12.20;;;4.80;;
46090;SDS011;31826;53.572;10.170;2023-06-01T04:31:28;11.32;;;4.45;;
46090;SDS011;31826;53.572;10.170;2023-06-01T04:33:53;11.07;;;4.35;;
46090;SDS011;31826;53.572;10.170;2023-06-01T04:36:24;11.05;;;4.43;;
46090;SDS011;31826;53.572;10.170;2023-06-01T04:38:49;11.60;;;4.10;;
46090;SDS011;31826;53.572;10.170;2023-06-01T04:41:19;14.73;;;4.60;;
46090;SDS011;31826;53.572;10.170;2023-06-01T04:43:53;13.48;;;4.45;;
46090;SDS011;31826;53.572;10.170;2023-06-01T04:46:19;18.52;;;4.68;;
46090;SDS011;31826;53.572;10.170;2023-06-01T04:48:47;11.57;;;3.42;;
46090;SDS011;31826;53.572;10.170;2023-06-01T04:51:14;10.27;;;3.85;;
46090;SDS011;31826;53.572;10.170;2023-06-01T04:53:46;10.32;;;3.80;;
46090;SDS011;31826;53.572;10.170;2023-06-01T04:56:23;13.63;;;4.07;;
46090;SDS011;31826;53.572;10.170;2023-06-01T04:58:51;9.80;;;3.58;;
46090;SDS011;31826;53.572;10.170;2023-06-01T05:01:18;12.67;;;4.17;;
46090;SDS011;31826;53.572;10.170;2023-06-01T05:03:46;10.27;;;3.55;;
46090;SDS011;31826;53.572;10.170;2023-06-01T05:06:12;15.77;;;4.40;;
46090;SDS011;31826;53.572;10.170;2023-06-01T05:08:39;9.93;;;3.38;;
46090;SDS011;31826;53.572;10.170;2023-06-01T05:11:05;9.87;;;3.40;;
46090;SDS011;31826;53.572;10.170;2023-06-01T05:13:35;12.27;;;4.13;;
46090;SDS011;31826;53.572;10.170;2023-06-01T05:16:05;11.88;;;3.97;;
46090;SDS011;31826;53.572;10.170;2023-06-01T05:18:32;11.57;;;3.50;;
46090;SDS011;31826;53.572;10.170;2023-06-01T05:20:58;14.00;;;3.50;;
46090;SDS011;31826;53.572;10.170;2023-06-01T05:23:24;13.07;;;3.60;;
46090;SDS011;31826;53.572;10.170;2023-06-01T05:25:51;11.85;;;3.65;;
46090;SDS011;31826;53.572;10.170;2023-06-01T05:28:19;12.27;;;2.90;;
46090;SDS011;31826;53.572;10.170;2023-06-01T05:30:46;10.93;;;3.30;;
46090;SDS011;31826;53.572;10.170;2023-06-01T05:33:11;12.80;;;3.03;;
46090;SDS011;31826;53.572;10.170;2023-06-01T05:35:37;10.03;;;2.90;;
46090;SDS011;31826;53.572;10.170;2023-06-01T05:38:03;10.30;;;3.10;;
46090;SDS011;31826;53.572;10.170;2023-06-01T05:40:29;9.20;;;3.70;;
46090;SDS011;31826;53.572;10.170;2023-06-01T05:42:55;10.35;;;3.00;;
46090;SDS011;31826;53.572;10.170;2023-06-01T05:45:21;8.38;;;3.35;;
46090;SDS011;31826;53.572;10.170;2023-06-01T05:47:46;10.10;;;2.47;;
46090;SDS011;31826;53.572;10.170;2023-06-01T05:50:12;13.47;;;3.20;;
46090;SDS011;31826;53.572;10.170;2023-06-01T05:52:38;8.80;;;2.97;;
46090;SDS011;31826;53.572;10.170;2023-06-01T05:55:06;11.43;;;3.10;;
46090;SDS011;31826;53.572;10.170;2023-06-01T05:57:32;7.90;;;2.97;;
46090;SDS011;31826;53.572;10.170;2023-06-01T05:59:58;10.32;;;2.58;;
46090;SDS011;31826;53.572;10.170;2023-06-01T06:02:23;7.55;;;2.78;;
46090;SDS011;31826;53.572;10.170;2023-06-01T06:04:49;10.03;;;2.63;;
46090;SDS011;31826;53.572;10.170;2023-06-01T06:07:15;11.47;;;2.93;;
46090;SDS011;31826;53.572;10.170;2023-06-01T06:09:41;8.33;;;2.73;;
46090;SDS011;31826;53.572;10.170;2023-06-01T06:12:06;9.68;;;3.72;;
46090;SDS011;31826;53.572;10.170;2023-06-01T06:14:32;9.13;;;3.00;;
46090;SDS011;31826;53.572;10.170;2023-06-01T06:16:58;9.83;;;3.27;;
46090;SDS011;31826;53.572;10.170;2023-06-01T06:19:25;9.80;;;3.08;;
46090;SDS011;31826;53.572;10.170;2023-06-01T06:21:51;10.77;;;2.95;;
46090;SDS011;31826;53.572;10.170;2023-06-01T06:24:19;8.07;;;2.40;;
46090;SDS011;31826;53.572;10.170;2023-06-01T06:26:45;7.82;;;2.88;;
46090;SDS011;31826;53.572;10.170;2023-06-01T06:29:12;12.32;;;2.85;;
46090;SDS011;31826;53.572;10.170;2023-06-01T06:31:39;10.55;;;2.95;;
46090;SDS011;31826;53.572;10.170;2023-06-01T06:34:07;10.48;;;2.90;;
46090;SDS011;31826;53.572;10.170;2023-06-01T06:36:34;10.80;;;2.70;;
46090;SDS011;31826;53.572;10.170;2023-06-01T06:39:01;8.52;;;2.58;;
46090;SDS011;31826;53.572;10.170;2023-06-01T06:41:27;8.35;;;2.40;;
46090;SDS011;31826;53.572;10.170;2023-06-01T06:43:53;15.10;;;6.27;;
46090;SDS011;31826;53.572;10.170;2023-06-01T06:46:19;9.07;;;2.50;;
46090;SDS011;31826;53.572;10.170;2023-06-01T06:48:44;12.00;;;2.88;;
46090;SDS011;31826;53.572;10.170;2023-06-01T06:51:10;9.32;;;2.47;;
46090;SDS011;31826;53.572;10.170;2023-06-01T06:53:36;9.45;;;2.83;;
46090;SDS011;31826;53.572;10.170;2023-06-01T06:56:01;12.53;;;3.20;;
46090;SDS011;31826;53.572;10.170;2023-06-01T06:58:27;7.50;;;2.53;;
46090;SDS011;31826;53.572;10.170;2023-06-01T07:00:53;7.37;;;2.40;;
46090;SDS011;31826;53.572;10.170;2023-06-01T07:03:18;8.10;;;2.42;;
46090;SDS011;31826;53.572;10.170;2023-06-01T07:05:44;9.80;;;2.67;;
46090;SDS011;31826;53.572;10.170;2023-06-01T07:08:10;7.90;;;2.20;;
46090;SDS011;31826;53.572;10.170;2023-06-01T07:10:36;13.45;;;2.60;;
46090;SDS011;31826;53.572;10.170;2023-06-01T07:13:02;11.63;;;2.70;;
46090;SDS011;31826;53.572;10.170;2023-06-01T07:15:27;12.52;;;2.72;;
46090;SDS011;31826;53.572;10.170;2023-06-01T07:17:53;11.68;;;2.92;;
46090;SDS011;31826;53.572;10.170;2023-06-01T07:20:19;10.00;;;2.47;;
46090;SDS011;31826;53.572;10.170;2023-06-01T07:22:45;15.75;;;3.20;;
46090;SDS011;31826;53.572;10.170;2023-06-01T07:25:10;6.82;;;2.40;;
46090;SDS011;31826;53.572;10.170;2023-06-01T07:27:38;10.90;;;2.37;;
46090;SDS011;31826;53.572;10.170;2023-06-01T07:30:08;5.72;;;1.88;;
46090;SDS011;31826;53.572;10.170;2023-06-01T07:32:35;9.73;;;2.22;;
46090;SDS011;31826;53.572;10.170;2023-06-01T07:35:01;7.05;;;1.92;;
46090;SDS011;31826;53.572;10.170;2023-06-01T07:37:30;8.30;;;2.20;;
46090;SDS011;31826;53.572;10.170;2023-06-01T07:39:56;9.75;;;2.15;;
46090;SDS011;31826;53.572;10.170;2023-06-01T07:42:22;16.42;;;2.97;;
46090;SDS011;31826;53.572;10.170;2023-06-01T07:44:48;7.50;;;2.10;;
46090;SDS011;31826;53.572;10.170;2023-06-01T07:47:14;12.07;;;2.60;;
46090;SDS011;31826;53.572;10.170;2023-06-01T07:49:40;10.98;;;2.08;;
46090;SDS011;31826;53.572;10.170;2023-06-01T07:52:06;7.80;;;2.10;;
46090;SDS011;31826;53.572;10.170;2023-06-01T07:54:35;7.33;;;2.20;;
46090;SDS011;31826;53.572;10.170;2023-06-01T07:57:04;9.90;;;2.67;;
46090;SDS011;31826;53.572;10.170;2023-06-01T07:59:33;7.47;;;1.92;;
46090;SDS011;31826;53.572;10.170;2023-06-01T08:01:59;7.20;;;2.30;;
46090;SDS011;31826;53.572;10.170;2023-06-01T08:04:25;9.75;;;2.30;;
46090;SDS011;31826;53.572;10.170;2023-06-01T08:06:52;8.75;;;2.17;;
46090;SDS011;31826;53.572;10.170;2023-06-01T08:09:18;7.85;;;2.10;;
46090;SDS011;31826;53.572;10.170;2023-06-01T08:11:45;13.00;;;2.90;;
46090;SDS011;31826;53.572;10.170;2023-06-01T08:14:11;9.33;;;2.43;;
46090;SDS011;31826;53.572;10.170;2023-06-01T08:16:37;9.17;;;2.30;;
46090;SDS011;31826;53.572;10.170;2023-06-01T08:19:02;8.87;;;2.17;;
46090;SDS011;31826;53.572;10.170;2023-06-01T08:21:28;7.20;;;2.30;;
46090;SDS011;31826;53.572;10.170;2023-06-01T08:23:54;10.50;;;2.40;;
46090;SDS011;31826;53.572;10.170;2023-06-01T08:26:21;11.07;;;2.20;;
46090;SDS011;31826;53.572;10.170;2023-06-01T08:28:47;33.72;;;4.97;;
46090;SDS011;31826;53.572;10.170;2023-06-01T08:31:20;8.88;;;2.75;;
46090;SDS011;31826;53.572;10.170;2023-06-01T08:33:47;8.13;;;2.60;;
46090;SDS011;31826;53.572;10.170;2023-06-01T08:36:14;10.50;;;2.45;;
46090;SDS011;31826;53.572;10.170;2023-06-01T08:38:40;10.70;;;2.70;;
46090;SDS011;31826;53.572;10.170;2023-06-01T08:41:31;9.63;;;2.80;;
46090;SDS011;31826;53.572;10.170;2023-06-01T08:44:07;10.30;;;2.53;;
46090;SDS011;31826;53.572;10.170;2023-06-01T08:46:35;12.52;;;2.88;;
46090;SDS011;31826;53.572;10.170;2023-06-01T08:49:02;10.23;;;2.80;;
46090;SDS011;31826;53.572;10.170;2023-06-01T08:51:31;11.57;;;2.53;;
46090;SDS011;31826;53.572;10.170;2023-06-01T08:53:58;9.57;;;2.55;;
46090;SDS011;31826;53.572;10.170;2023-06-01T08:56:27;7.57;;;2.50;;
46090;SDS011;31826;53.572;10.170;2023-06-01T08:58:53;9.00;;;2.80;;
46090;SDS011;31826;53.572;10.170;2023-06-01T09:01:20;9.13;;;2.43;;
46090;SDS011;31826;53.572;10.170;2023-06-01T09:03:48;9.50;;;2.83;;
46090;SDS011;31826;53.572;10.170;2023-06-01T09:06:15;8.13;;;2.55;;
46090;SDS011;31826;53.572;10.170;2023-06-01T09:08:41;8.82;;;2.67;;
46090;SDS011;31826;53.572;10.170;2023-06-01T09:11:07;8.73;;;2.70;;
46090;SDS011;31826;53.572;10.170;2023-06-01T09:13:34;6.18;;;2.20;;
46090;SDS011;31826;53.572;10.170;2023-06-01T09:16:04;10.13;;;2.53;;
46090;SDS011;31826;53.572;10.170;2023-06-01T09:18:30;6.78;;;2.47;;
46090;SDS011;31826;53.572;10.170;2023-06-01T09:21:16;6.00;;;2.33;;
46090;SDS011;31826;53.572;10.170;2023-06-01T09:23:41;9.70;;;3.17;;
46090;SDS011;31826;53.572;10.170;2023-06-01T09:28:53;4.53;;;1.88;;
46090;SDS011;31826;53.572;10.170;2023-06-01T09:34:01;8.05;;;2.03;;
46090;SDS011;31826;53.572;10.170;2023-06-01T09:36:27;9.23;;;2.30;;
46090;SDS011;31826;53.572;10.170;2023-06-01T09:39:07;8.60;;;2.97;;
46090;SDS011;31826;53.572;10.170;2023-06-01T09:44:22;8.35;;;2.53;;
46090;SDS011;31826;53.572;10.170;2023-06-01T09:46:56;9.40;;;2.63;;
46090;SDS011;31826;53.572;10.170;2023-06-01T09:49:36;9.07;;;2.50;;
46090;SDS011;31826;53.572;10.170;2023-06-01T09:54:32;11.47;;;3.10;;
46090;SDS011;31826;53.572;10.170;2023-06-01T09:57:09;9.63;;;2.25;;
46090;SDS011;31826;53.572;10.170;2023-06-01T09:59:43;7.97;;;2.35;;
46090;SDS011;31826;53.572;10.170;2023-06-01T10:02:13;6.18;;;2.00;;
46090;SDS011;31826;53.572;10.170;2023-06-01T10:04:45;8.27;;;2.65;;
46090;SDS011;31826;53.572;10.170;2023-06-01T10:07:15;7.95;;;2.55;;
46090;SDS011;31826;53.572;10.170;2023-06-01T10:09:43;9.88;;;2.47;;
46090;SDS011;31826;53.572;10.170;2023-06-01T10:12:14;9.15;;;2.63;;
46090;SDS011;31826;53.572;10.170;2023-06-01T10:14:40;10.55;;;2.67;;
46090;SDS011;31826;53.572;10.170;2023-06-01T10:17:06;8.18;;;2.28;;
46090;SDS011;31826;53.572;10.170;2023-06-01T10:19:32;7.10;;;2.53;;
46090;SDS011;31826;53.572;10.170;2023-06-01T10:22:01;10.32;;;2.28;;
46090;SDS011;31826;53.572;10.170;2023-06-01T10:24:28;10.05;;;2.67;;
46090;SDS011;31826;53.572;10.170;2023-06-01T10:26:59;9.15;;;2.58;;
46090;SDS011;31826;53.572;10.170;2023-06-01T10:29:47;13.15;;;2.60;;
46090;SDS011;31826;53.572;10.170;2023-06-01T10:40:47;5.85;;;2.10;;
46090;SDS011;31826;53.572;10.170;2023-06-01T10:46:00;8.45;;;2.30;;
46090;SDS011;31826;53.572;10.170;2023-06-01T10:51:21;7.78;;;2.25;;
46090;SDS011;31826;53.572;10.170;2023-06-01T10:53:51;9.60;;;2.35;;
46090;SDS011;31826;53.572;10.170;2023-06-01T10:56:23;10.45;;;2.80;;
46090;SDS011;31826;53.572;10.170;2023-06-01T11:01:33;7.43;;;2.28;;
46090;SDS011;31826;53.572;10.170;2023-06-01T11:04:00;6.47;;;1.80;;
46090;SDS011;31826;53.572;10.170;2023-06-01T11:06:30;7.80;;;2.10;;
46090;SDS011;31826;53.572;10.170;2023-06-01T11:08:59;11.00;;;2.30;;
46090;SDS011;31826;53.572;10.170;2023-06-01T11:11:59;9.07;;;2.10;;
46090;SDS011;31826;53.572;10.170;2023-06-01T11:14:22;7.07;;;1.90;;
46090;SDS011;31826;53.572;10.170;2023-06-01T11:16:54;7.38;;;2.25;;
46090;SDS011;31826;53.572;10.170;2023-06-01T11:19:24;9.05;;;2.65;;
46090;SDS011;31826;53.572;10.170;2023-06-01T11:21:57;8.00;;;2.38;;
46090;SDS011;31826;53.572;10.170;2023-06-01T11:24:34;7.47;;;2.10;;
46090;SDS011;31826;53.572;10.170;2023-06-01T11:27:07;9.50;;;2.00;;
46090;SDS011;31826;53.572;10.170;2023-06-01T11:29:34;6.68;;;1.90;;
46090;SDS011;31826;53.572;10.170;2023-06-01T11:32:01;7.10;;;2.13;;
46090;SDS011;31826;53.572;10.170;2023-06-01T11:37:03;9.27;;;2.10;;
46090;SDS011;31826;53.572;10.170;2023-06-01T11:39:30;5.65;;;1.90;;
46090;SDS011;31826;53.572;10.170;2023-06-01T11:42:33;7.30;;;1.83;;
46090;SDS011;31826;53.572;10.170;2023-06-01T11:44:58;7.78;;;2.03;;
46090;SDS011;31826;53.572;10.170;2023-06-01T11:47:27;9.95;;;2.50;;
46090;SDS011;31826;53.572;10.170;2023-06-01T11:49:58;7.10;;;2.88;;
46090;SDS011;31826;53.572;10.170;2023-06-01T11:52:23;8.38;;;2.45;;
46090;SDS011;31826;53.572;10.170;2023-06-01T11:54:49;6.73;;;2.00;;
46090;SDS011;31826;53.572;10.170;2023-06-01T11:57:17;8.07;;;2.22;;
46090;SDS011;31826;53.572;10.170;2023-06-01T11:59:48;11.15;;;2.58;;
46090;SDS011;31826;53.572;10.170;2023-06-01T12:07:46;6.47;;;2.30;;
46090;SDS011;31826;53.572;10.170;2023-06-01T12:10:19;9.38;;;2.15;;
46090;SDS011;31826;53.572;10.170;2023-06-01T12:12:46;8.82;;;2.50;;
46090;SDS011;31826;53.572;10.170;2023-06-01T12:15:15;7.25;;;2.00;;
46090;SDS011;31826;53.572;10.170;2023-06-01T12:17:53;6.90;;;2.00;;
46090;SDS011;31826;53.572;10.170;2023-06-01T12:20:30;6.60;;;1.77;;
46090;SDS011;31826;53.572;10.170;2023-06-01T12:22:58;7.18;;;1.90;;
46090;SDS011;31826;53.572;10.170;2023-06-01T12:25:28;9.57;;;2.00;;
46090;SDS011;31826;53.572;10.170;2023-06-01T12:28:02;5.50;;;1.40;;
46090;SDS011;31826;53.572;10.170;2023-06-01T12:30:32;5.82;;;1.73;;
46090;SDS011;31826;53.572;10.170;2023-06-01T12:32:58;6.65;;;1.58;;
46090;SDS011;31826;53.572;10.170;2023-06-01T12:35:25;9.35;;;3.17;;
46090;SDS011;31826;53.572;10.170;2023-06-01T12:41:05;6.68;;;1.52;;
46090;SDS011;31826;53.572;10.170;2023-06-01T12:43:46;6.03;;;1.52;;
46090;SDS011;31826;53.572;10.170;2023-06-01T12:46:22;4.97;;;1.40;;
46090;SDS011;31826;53.572;10.170;2023-06-01T12:51:36;9.30;;;1.70;;
46090;SDS011;31826;53.572;10.170;2023-06-01T12:54:03;7.78;;;1.80;;
46090;SDS011;31826;53.572;10.170;2023-06-01T12:56:29;9.60;;;2.00;;
46090;SDS011;31826;53.572;10.170;2023-06-01T12:58:55;9.45;;;2.05;;
46090;SDS011;31826;53.572;10.170;2023-06-01T13:01:21;8.75;;;1.77;;
46090;SDS011;31826;53.572;10.170;2023-06-01T13:03:46;5.00;;;1.73;;
46090;SDS011;31826;53.572;10.170;2023-06-01T13:06:12;5.95;;;1.55;;
46090;SDS011;31826;53.572;10.170;2023-06-01T13:08:41;7.50;;;1.70;;
46090;SDS011;31826;53.572;10.170;2023-06-01T13:11:07;6.68;;;1.75;;
46090;SDS011;31826;53.572;10.170;2023-06-01T13:13:33;7.50;;;1.77;;
46090;SDS011;31826;53.572;10.170;2023-06-01T13:15:59;6.30;;;1.60;;
46090;SDS011;31826;53.572;10.170;2023-06-01T13:18:26;5.38;;;1.27;;
46090;SDS011;31826;53.572;10.170;2023-06-01T13:20:52;9.35;;;1.40;;
46090;SDS011;31826;53.572;10.170;2023-06-01T13:23:18;7.15;;;1.98;;
46090;SDS011;31826;53.572;10.170;2023-06-01T13:25:43;9.18;;;1.67;;
46090;SDS011;31826;53.572;10.170;2023-06-01T13:28:09;7.83;;;1.60;;
46090;SDS011;31826;53.572;10.170;2023-06-01T13:30:35;7.37;;;1.57;;
46090;SDS011;31826;53.572;10.170;2023-06-01T13:33:01;8.07;;;1.95;;
46090;SDS011;31826;53.572;10.170;2023-06-01T13:35:27;6.23;;;1.50;;
46090;SDS011;31826;53.572;10.170;2023-06-01T13:37:52;12.30;;;2.30;;
46090;SDS011;31826;53.572;10.170;2023-06-01T13:40:18;9.82;;;1.55;;
46090;SDS011;31826;53.572;10.170;2023-06-01T13:42:48;5.72;;;1.45;;
46090;SDS011;31826;53.572;10.170;2023-06-01T13:45:15;6.15;;;1.90;;
46090;SDS011;31826;53.572;10.170;2023-06-01T13:47:42;8.68;;;1.70;;
46090;SDS011;31826;53.572;10.170;2023-06-01T13:50:07;7.32;;;1.52;;
46090;SDS011;31826;53.572;10.170;2023-06-01T13:52:33;8.45;;;2.17;;
46090;SDS011;31826;53.572;10.170;2023-06-01T13:54:59;9.50;;;2.00;;
46090;SDS011;31826;53.572;10.170;2023-06-01T13:57:25;7.83;;;1.70;;
46090;SDS011;31826;53.572;10.170;2023-06-01T13:59:50;8.37;;;2.10;;
46090;SDS011;31826;53.572;10.170;2023-06-01T14:02:16;6.50;;;1.85;;
46090;SDS011;31826;53.572;10.170;2023-06-01T14:04:42;5.47;;;1.48;;
46090;SDS011;31826;53.572;10.170;2023-06-01T14:07:08;9.03;;;2.40;;
46090;SDS011;31826;53.572;10.170;2023-06-01T14:09:33;6.17;;;1.70;;
46090;SDS011;31826;53.572;10.170;2023-06-01T14:11:59;10.03;;;1.70;;
46090;SDS011;31826;53.572;10.170;2023-06-01T14:14:25;12.07;;;2.73;;
46090;SDS011;31826;53.572;10.170;2023-06-01T14:16:51;6.13;;;1.85;;
46090;SDS011;31826;53.572;10.170;2023-06-01T14:19:16;9.05;;;1.88;;
46090;SDS011;31826;53.572;10.170;2023-06-01T14:21:42;11.07;;;2.47;;
46090;SDS011;31826;53.572;10.170;2023-06-01T14:24:08;8.47;;;1.63;;
46090;SDS011;31826;53.572;10.170;2023-06-01T14:26:33;9.47;;;1.90;;
46090;SDS011;31826;53.572;10.170;2023-06-01T14:28:59;9.23;;;1.77;;
46090;SDS011;31826;53.572;10.170;2023-06-01T14:31:25;6.25;;;1.60;;
46090;SDS011;31826;53.572;10.170;2023-06-01T14:33:51;8.77;;;1.90;;
46090;SDS011;31826;53.572;10.170;2023-06-01T14:36:16;10.75;;;2.28;;
46090;SDS011;31826;53.572;10.170;2023-06-01T14:38:45;9.00;;;1.88;;
46090;SDS011;31826;53.572;10.170;2023-06-01T14:41:10;9.00;;;1.92;;
46090;SDS011;31826;53.572;10.170;2023-06-01T14:43:36;9.77;;;1.53;;
46090;SDS011;31826;53.572;10.170;2023-06-01T14:46:04;5.65;;;1.80;;
46090;SDS011;31826;53.572;10.170;2023-06-01T14:48:29;6.88;;;2.00;;
46090;SDS011;31826;53.572;10.170;2023-06-01T14:50:55;7.13;;;1.60;;
46090;SDS011;31826;53.572;10.170;2023-06-01T14:53:21;9.05;;;1.75;;
46090;SDS011;31826;53.572;10.170;2023-06-01T14:55:47;8.70;;;1.80;;
46090;SDS011;31826;53.572;10.170;2023-06-01T14:58:12;11.10;;;2.23;;
46090;SDS011;31826;53.572;10.170;2023-06-01T15:00:38;13.15;;;2.00;;
46090;SDS011;31826;53.572;10.170;2023-06-01T15:03:04;7.18;;;1.80;;
46090;SDS011;31826;53.572;10.170;2023-06-01T15:05:30;9.73;;;1.88;;
46090;SDS011;31826;53.572;10.170;2023-06-01T15:07:56;10.07;;;2.90;;
46090;SDS011;31826;53.572;10.170;2023-06-01T15:10:22;8.43;;;2.33;;
46090;SDS011;31826;53.572;10.170;2023-06-01T15:12:48;11.80;;;2.07;;
46090;SDS011;31826;53.572;10.170;2023-06-01T15:15:14;12.43;;;2.50;;
46090;SDS011;31826;53.572;10.170;2023-06-01T15:17:39;12.00;;;2.00;;